Time;durP1;ratioP1;P1;durP2;ratioP2;P2;SDS_P1;SDS_P2;PMS_P1;PMS_P2;Temp;Humidity;BMP_temperature;BMP_pressure;BME280_temperature;BME280_humidity;BME280_pressure;Samples;Min_cycle;Max_cycle;Signal;HPM_P1;HPM_P2
2023/04/14 00:00:09;;;;;;;;;;;;;;;19.08;57.40;97274.25;2078870;28;19932;-46
2023/04/14 00:01:13;;;;;;;;;;;;;;;19.08;57.38;97276.94;2082766;28;19982;-45
2023/04/14 00:02:14;;;;;;;;;;;;;;;19.08;57.35;97271.56;2080442;28;20558;-47
2023/04/14 00:03:16;;;;;;;;;;;;;;;19.07;57.49;97269.94;2082277;28;20015;-47
2023/04/14 00:04:18;;;;;;;;;;;;;;;19.04;57.42;97263.19;2081745;28;19929;-46
2023/04/14 00:05:19;;;;;;;;;;;;;;;19.04;57.87;97267.75;2082055;28;20399;-46
2023/04/14 00:06:21;;;;;;;;;;;;;;;19.03;57.60;97258.03;2075802;28;19974;-47
2023/04/14 00:07:22;;;;;;;;;;;;;;;19.03;57.66;97261.56;2078649;28;20016;-46
2023/04/14 00:08:24;;;;;;;;;;;;;;;19.03;57.50;97260.72;2077603;28;20395;-45
2023/04/14 00:09:25;;;;;;;;;;;;;;;19.05;57.60;97263.97;2082232;28;19968;-47
2023/04/14 00:10:26;;;;;;;;;;;;;;;19.03;57.49;97263.41;2081147;28;20300;-45
2023/04/14 00:11:27;;;;;;;;;;;;;;;19.03;57.60;97260.72;2072818;28;20014;-48
2023/04/14 00:12:28;;;;;;;;;;;;;;;19.01;57.73;97258.28;2079992;28;19924;-46
2023/04/14 00:13:29;;;;;;;;;;;;;;;19.01;57.51;97262.84;2081605;28;19932;-47
2023/04/14 00:14:31;;;;;;;;;;;;;;;19.00;57.49;97266.56;2079370;28;19924;-46
2023/04/14 00:15:31;;;;;;;;;;;;;;;18.98;57.48;97259.56;2079100;28;20004;-46
2023/04/14 00:16:33;;;;;;;;;;;;;;;18.99;57.41;97268.44;2078928;28;20321;-47
2023/04/14 00:17:33;;;;;;;;;;;;;;;18.99;57.45;97263.06;2080142;28;19933;-45
2023/04/14 00:18:34;;;;;;;;;;;;;;;18.98;57.18;97266.81;2078174;28;19990;-47
2023/04/14 00:19:35;;;;;;;;;;;;;;;18.96;57.23;97274.28;2079830;28;19974;-46
2023/04/14 00:20:36;;;;;;;;;;;;;;;18.96;57.39;97275.09;2083393;28;20422;-46
2023/04/14 00:21:38;;;;;;;;;;;;;;;18.95;57.59;97278.06;2080949;28;19928;-49
2023/04/14 00:22:40;;;;;;;;;;;;;;;18.96;57.43;97269.72;2079957;28;20390;-47
2023/04/14 00:23:40;;;;;;;;;;;;;;;18.96;57.29;97275.09;2080279;28;19933;-45
2023/04/14 00:24:43;;;;;;;;;;;;;;;18.94;57.32;97271.03;2080906;28;19983;-46
2023/04/14 00:25:43;;;;;;;;;;;;;;;18.93;57.38;97272.09;2083879;28;20817;-46
2023/04/14 00:26:45;;;;;;;;;;;;;;;18.93;57.45;97270.22;2078823;28;19935;-45
2023/04/14 00:27:45;;;;;;;;;;;;;;;18.92;57.58;97271.28;2078553;28;19943;-45
2023/04/14 00:28:47;;;;;;;;;;;;;;;18.90;57.35;97269.88;2080629;28;19982;-46
2023/04/14 00:29:48;;;;;;;;;;;;;;;18.90;57.41;97270.69;2081476;28;19928;-46
2023/04/14 00:30:49;;;;;;;;;;;;;;;18.92;57.57;97267.78;2080517;28;19928;-45
2023/04/14 00:31:50;;;;;;;;;;;;;;;18.91;57.60;97276.88;2080111;28;19939;-46
2023/04/14 00:32:51;;;;;;;;;;;;;;;18.89;57.44;97271.75;2080522;28;19928;-47
2023/04/14 00:33:52;;;;;;;;;;;;;;;18.89;57.26;97271.75;2081100;28;19928;-47
2023/04/14 00:34:55;;;;;;;;;;;;;;;18.89;57.28;97271.75;2079773;28;21201;-47
2023/04/14 00:35:56;;;;;;;;;;;;;;;18.90;57.50;97275.25;2086575;28;19967;-46
2023/04/14 00:36:59;;;;;;;;;;;;;;;18.88;57.32;97270.09;2080944;28;20976;-46
2023/04/14 00:37:59;;;;;;;;;;;;;;;18.87;57.48;97281.09;2078380;28;19929;-49
2023/04/14 00:39:01;;;;;;;;;;;;;;;18.88;57.53;97277.34;2078437;28;19954;-51
2023/04/14 00:40:01;;;;;;;;;;;;;;;18.87;57.47;97276.53;2077743;28;19936;-51
2023/04/14 00:41:03;;;;;;;;;;;;;;;18.87;57.21;97271.19;2076940;28;20009;-50
2023/04/14 00:42:03;;;;;;;;;;;;;;;18.84;57.68;97270.84;2076036;28;20001;-49
2023/04/14 00:43:05;;;;;;;;;;;;;;;18.85;57.24;97272.47;2077082;28;19978;-48
2023/04/14 00:44:05;;;;;;;;;;;;;;;18.84;57.32;97274.34;2074480;28;19932;-51
2023/04/14 00:45:07;;;;;;;;;;;;;;;18.84;57.60;97274.34;2078990;28;19928;-47
2023/04/14 00:46:08;;;;;;;;;;;;;;;18.83;57.24;97275.38;2077718;28;20276;-48
2023/04/14 00:47:09;;;;;;;;;;;;;;;18.82;57.41;97273.75;2080066;28;20036;-50
2023/04/14 00:48:10;;;;;;;;;;;;;;;18.82;57.23;97281.81;2080167;28;19954;-49
2023/04/14 00:49:12;;;;;;;;;;;;;;;18.82;57.42;97275.63;2082349;28;20705;-50
2023/04/14 00:50:13;;;;;;;;;;;;;;;18.82;57.26;97273.75;2080986;28;19928;-46
2023/04/14 00:51:14;;;;;;;;;;;;;;;18.82;57.57;97279.13;2085227;28;19925;-50
2023/04/14 00:52:17;;;;;;;;;;;;;;;18.82;57.49;97272.94;2081067;28;19940;-52
2023/04/14 00:53:19;;;;;;;;;;;;;;;18.79;57.09;97276.91;2081084;28;19935;-49
2023/04/14 00:54:19;;;;;;;;;;;;;;;18.78;57.53;97277.97;2082673;28;19925;-51
2023/04/14 00:55:21;;;;;;;;;;;;;;;18.80;57.17;97283.09;2080538;28;19996;-51
2023/04/14 00:56:23;;;;;;;;;;;;;;;18.78;57.22;97277.97;2079172;28;19954;-48
2023/04/14 00:57:26;;;;;;;;;;;;;;;18.78;57.11;97285.19;2082353;28;19932;-50
2023/04/14 00:58:26;;;;;;;;;;;;;;;18.77;57.33;97286.25;2088060;28;19950;-48
2023/04/14 00:59:28;;;;;;;;;;;;;;;18.79;57.45;97287.66;2088535;28;19955;-48
2023/04/14 01:00:29;;;;;;;;;;;;;;;18.76;57.20;97290.81;2087399;28;19933;-48
2023/04/14 01:01:32;;;;;;;;;;;;;;;18.74;57.27;97285.69;2086112;28;19924;-49
2023/04/14 01:02:32;;;;;;;;;;;;;;;18.74;57.31;97284.88;2078090;28;19999;-47
2023/04/14 01:03:35;;;;;;;;;;;;;;;18.73;57.26;97281.34;2085908;28;19940;-47
2023/04/14 01:04:35;;;;;;;;;;;;;;;18.72;57.38;97284.25;2088743;28;19928;-51
2023/04/14 01:05:37;;;;;;;;;;;;;;;18.72;57.11;97287.78;2087256;28;19940;-46
2023/04/14 01:06:37;;;;;;;;;;;;;;;18.71;57.17;97293.38;2089011;28;19989;-49
2023/04/14 01:07:40;;;;;;;;;;;;;;;18.72;57.27;97284.25;2086917;28;19943;-48
2023/04/14 01:08:41;;;;;;;;;;;;;;;18.71;56.95;97291.50;2086543;28;19932;-51
2023/04/14 01:09:42;;;;;;;;;;;;;;;18.71;57.32;97293.38;2089099;28;19925;-51
2023/04/14 01:10:48;;;;;;;;;;;;;;;18.72;57.16;97289.63;2089103;28;19978;-47
2023/04/14 01:11:54;;;;;;;;;;;;;;;18.72;57.15;97300.38;2087180;28;20289;-50
2023/04/14 01:13:05;;;;;;;;;;;;;;;18.71;57.07;97298.75;2088262;28;19925;-52
2023/04/14 01:14:10;;;;;;;;;;;;;;;18.69;57.14;97295.47;2090841;28;20015;-49
2023/04/14 01:15:14;;;;;;;;;;;;;;;18.70;57.25;97295.25;2087589;28;19932;-47
2023/04/14 01:16:18;;;;;;;;;;;;;;;18.70;57.24;97297.94;2089609;28;20039;-50
2023/04/14 01:17:29;;;;;;;;;;;;;;;18.69;57.47;97296.31;2086846;28;19928;-48
2023/04/14 01:18:35;;;;;;;;;;;;;;;18.68;57.19;97297.34;2083622;28;19939;-51
2023/04/14 01:19:45;;;;;;;;;;;;;;;18.68;57.04;97296.53;2083499;28;20818;-51
2023/04/14 01:20:49;;;;;;;;;;;;;;;18.67;57.39;97292.22;2085562;28;19928;-48
2023/04/14 01:21:53;;;;;;;;;;;;;;;18.67;57.33;97286.84;2088019;28;19971;-47
2023/04/14 01:22:59;;;;;;;;;;;;;;;18.66;57.31;97283.31;2086951;28;19929;-48
2023/04/14 01:24:04;;;;;;;;;;;;;;;18.67;57.31;97289.53;2089279;28;20432;-48
2023/04/14 01:25:15;;;;;;;;;;;;;;;18.66;57.16;97282.50;2088991;28;19929;-50
2023/04/14 01:26:20;;;;;;;;;;;;;;;18.67;57.29;97294.91;2086895;28;19953;-46
2023/04/14 01:27:32;;;;;;;;;;;;;;;18.66;56.96;97287.88;2089329;28;19933;-48
2023/04/14 01:28:44;;;;;;;;;;;;;;;18.64;57.28;97292.69;2087732;28;20341;-47
2023/04/14 01:30:00;;;;;;;;;;;;;;;18.63;57.32;97291.84;2086561;28;19928;-47
2023/04/14 01:31:04;;;;;;;;;;;;;;;18.63;57.32;97288.38;2086976;28;19932;-47
2023/04/14 01:32:09;;;;;;;;;;;;;;;18.63;57.32;97293.72;2088139;28;19931;-46
2023/04/14 01:33:14;;;;;;;;;;;;;;;18.61;57.05;97288.63;2087996;28;19936;-50
2023/04/14 01:34:29;;;;;;;;;;;;;;;18.61;57.21;97288.63;2089349;28;19929;-46
2023/04/14 01:35:32;;;;;;;;;;;;;;;18.61;57.05;97293.16;2087608;28;19929;-47
2023/04/14 01:36:37;;;;;;;;;;;;;;;18.60;57.23;97296.91;2077736;28;19929;-49
2023/04/14 01:37:40;;;;;;;;;;;;;;;18.60;57.00;97286.16;2088051;28;19925;-46
2023/04/14 01:38:44;;;;;;;;;;;;;;;18.59;57.15;97289.91;2087845;28;20374;-46
2023/04/14 01:39:47;;;;;;;;;;;;;;;18.57;57.33;97294.69;2087675;28;20314;-46
2023/04/14 01:40:50;;;;;;;;;;;;;;;18.57;57.24;97284.75;2084295;28;19974;-46
2023/04/14 01:41:54;;;;;;;;;;;;;;;18.59;57.22;97289.91;2085903;28;19928;-47
2023/04/14 01:42:59;;;;;;;;;;;;;;;18.60;57.24;97286.16;2084390;28;19925;-49
2023/04/14 01:44:00;;;;;;;;;;;;;;;18.57;57.12;97289.31;2086341;28;19925;-46
2023/04/14 01:45:04;;;;;;;;;;;;;;;18.56;57.31;97285.81;2087561;28;19944;-46
2023/04/14 01:46:06;;;;;;;;;;;;;;;18.55;57.18;97281.47;2080425;28;19932;-47
2023/04/14 01:47:10;;;;;;;;;;;;;;;18.56;57.15;97280.44;2078176;28;19929;-46
2023/04/14 01:48:11;;;;;;;;;;;;;;;18.58;57.24;97290.94;2076426;28;20051;-46
2023/04/14 01:49:13;;;;;;;;;;;;;;;18.56;57.14;97282.31;2077548;28;19932;-47
2023/04/14 01:50:15;;;;;;;;;;;;;;;18.53;57.18;97281.72;2080593;28;19932;-50
2023/04/14 01:51:18;;;;;;;;;;;;;;;18.53;57.19;97281.72;2079130;28;19929;-46
2023/04/14 01:52:19;;;;;;;;;;;;;;;18.53;57.07;97283.59;2070643;28;20676;-46
2023/04/14 01:53:21;;;;;;;;;;;;;;;18.52;57.17;97282.75;2080970;28;19935;-47
2023/04/14 01:54:22;;;;;;;;;;;;;;;18.51;57.00;97281.16;2080329;28;27755;-47
2023/04/14 01:55:25;;;;;;;;;;;;;;;18.51;57.18;97286.50;2079310;28;20039;-47
2023/04/14 01:56:27;;;;;;;;;;;;;;;18.49;57.07;97285.94;2080750;28;19928;-47
2023/04/14 01:57:29;;;;;;;;;;;;;;;18.49;56.98;97285.94;2086316;28;19932;-48
2023/04/14 01:58:30;;;;;;;;;;;;;;;18.52;57.03;97290.00;2087521;28;19940;-45
2023/04/14 01:59:33;;;;;;;;;;;;;;;18.52;57.00;97284.63;2088224;28;19974;-47
2023/04/14 02:00:35;;;;;;;;;;;;;;;18.51;57.03;97283.81;2084662;28;19929;-47
2023/04/14 02:01:37;;;;;;;;;;;;;;;18.49;56.89;97288.59;2076153;28;20476;-47
2023/04/14 02:02:40;;;;;;;;;;;;;;;18.50;57.21;97281.41;2078086;28;19929;-47
2023/04/14 02:03:42;;;;;;;;;;;;;;;18.48;56.75;97276.25;2076970;28;20075;-47
2023/04/14 02:04:43;;;;;;;;;;;;;;;18.48;57.26;97284.31;2080307;28;20903;-47
2023/04/14 02:05:46;;;;;;;;;;;;;;;18.48;57.20;97280.81;2080593;28;19975;-46
2023/04/14 02:06:48;;;;;;;;;;;;;;;18.47;57.09;97282.69;2078826;28;19939;-45
2023/04/14 02:07:51;;;;;;;;;;;;;;;18.47;57.29;97290.72;2079249;28;20047;-49
2023/04/14 02:08:52;;;;;;;;;;;;;;;18.47;57.24;97282.69;2081806;28;19935;-45
2023/04/14 02:09:53;;;;;;;;;;;;;;;18.43;57.23;97278.81;2072452;28;21784;-46
2023/04/14 02:10:55;;;;;;;;;;;;;;;18.44;57.00;97282.31;2070119;28;19962;-47
2023/04/14 02:11:57;;;;;;;;;;;;;;;18.45;57.14;97284.78;2078184;28;21767;-45
2023/04/14 02:12:58;;;;;;;;;;;;;;;18.44;56.86;97276.94;2078701;28;19936;-49
2023/04/14 02:14:00;;;;;;;;;;;;;;;18.43;56.93;97281.50;2077445;28;19928;-47
2023/04/14 02:15:01;;;;;;;;;;;;;;;18.41;56.82;97278.22;2078219;28;20510;-47
2023/04/14 02:16:03;;;;;;;;;;;;;;;18.43;56.93;97270.75;2078402;28;20022;-47
2023/04/14 02:17:04;;;;;;;;;;;;;;;18.44;57.18;97276.94;2079751;28;19964;-48
2023/04/14 02:18:07;;;;;;;;;;;;;;;18.42;56.95;97263.78;2079792;28;19932;-46
2023/04/14 02:19:08;;;;;;;;;;;;;;;18.41;57.03;97267.50;2079273;28;19929;-45
2023/04/14 02:20:11;;;;;;;;;;;;;;;18.41;56.98;97262.13;2076450;28;19928;-46
2023/04/14 02:21:14;;;;;;;;;;;;;;;18.42;57.19;97266.47;2079879;28;19974;-47
2023/04/14 02:22:15;;;;;;;;;;;;;;;18.42;57.07;97262.97;2076286;28;20052;-50
2023/04/14 02:23:15;;;;;;;;;;;;;;;18.42;56.97;97257.59;2081033;28;19928;-46
2023/04/14 02:24:18;;;;;;;;;;;;;;;18.40;56.81;97257.81;2082454;28;20449;-49
2023/04/14 02:25:20;;;;;;;;;;;;;;;18.41;56.98;97250.56;2077699;28;19933;-50
2023/04/14 02:26:23;;;;;;;;;;;;;;;18.41;56.93;97245.19;2076077;28;20924;-49
2023/04/14 02:27:29;;;;;;;;;;;;;;;18.40;57.11;97254.31;2077026;28;19933;-48
2023/04/14 02:28:33;;;;;;;;;;;;;;;18.39;57.06;97248.13;2066623;28;19940;-47
2023/04/14 02:29:35;;;;;;;;;;;;;;;18.39;57.16;97239.28;2078984;28;21327;-46
2023/04/14 02:30:38;;;;;;;;;;;;;;;18.39;57.27;97240.09;2080444;28;19928;-49
2023/04/14 02:31:41;;;;;;;;;;;;;;;18.38;56.93;97245.69;2079089;28;19936;-48
2023/04/14 02:32:45;;;;;;;;;;;;;;;18.37;56.86;97244.88;2078656;28;19932;-46
2023/04/14 02:33:51;;;;;;;;;;;;;;;18.37;56.72;97244.88;2074824;28;20345;-48
2023/04/14 02:34:55;;;;;;;;;;;;;;;18.37;57.09;97246.75;2076597;28;19933;-49
2023/04/14 02:36:02;;;;;;;;;;;;;;;18.38;56.81;97245.69;2076347;28;19982;-48
2023/04/14 02:37:08;;;;;;;;;;;;;;;18.36;56.99;97245.94;2078868;28;19928;-48
2023/04/14 02:38:12;;;;;;;;;;;;;;;18.36;56.88;97247.78;2076122;28;20020;-50
2023/04/14 02:39:16;;;;;;;;;;;;;;;18.35;57.18;97249.66;2077473;28;19929;-47
2023/04/14 02:40:19;;;;;;;;;;;;;;;18.36;56.87;97242.41;2082926;28;19951;-48
2023/04/14 02:41:23;;;;;;;;;;;;;;;18.38;57.09;97251.03;2075356;28;19982;-51
2023/04/14 02:42:25;;;;;;;;;;;;;;;18.37;56.68;97257.47;2078657;28;19940;-48
2023/04/14 02:43:29;;;;;;;;;;;;;;;18.36;56.96;97253.97;2074972;28;19929;-51
2023/04/14 02:44:31;;;;;;;;;;;;;;;18.38;57.15;97251.03;2076757;28;19932;-50
2023/04/14 02:45:36;;;;;;;;;;;;;;;18.37;56.76;97252.09;2072610;28;20018;-49
2023/04/14 02:46:39;;;;;;;;;;;;;;;18.36;56.88;97253.97;2078413;28;19936;-50
2023/04/14 02:47:43;;;;;;;;;;;;;;;18.35;56.69;97257.69;2078203;28;20865;-51
2023/04/14 02:48:45;;;;;;;;;;;;;;;18.35;56.86;97262.25;2079621;28;19985;-51
2023/04/14 02:49:49;;;;;;;;;;;;;;;18.33;56.76;97259.81;2077141;28;19933;-48
2023/04/14 02:50:51;;;;;;;;;;;;;;;18.33;57.04;97262.50;2078488;28;19929;-48
2023/04/14 02:51:54;;;;;;;;;;;;;;;18.32;57.00;97258.16;2080856;28;20785;-47
2023/04/14 02:52:55;;;;;;;;;;;;;;;18.29;56.78;97262.13;2079627;28;19989;-47
2023/04/14 02:53:56;;;;;;;;;;;;;;;18.30;56.89;97262.94;2077982;28;19939;-50
2023/04/14 02:54:57;;;;;;;;;;;;;;;18.28;57.10;97259.72;2075233;28;19932;-46
2023/04/14 02:55:59;;;;;;;;;;;;;;;18.28;57.07;97262.38;2078688;28;19928;-50
2023/04/14 02:57:01;;;;;;;;;;;;;;;18.29;56.83;97262.13;2075595;28;20398;-47
2023/04/14 02:58:02;;;;;;;;;;;;;;;18.29;56.75;97264.00;2077433;28;19932;-46
2023/04/14 02:59:03;;;;;;;;;;;;;;;18.28;56.98;97267.75;2078065;28;19925;-47
2023/04/14 03:00:05;;;;;;;;;;;;;;;18.29;56.82;97272.06;2077683;28;20031;-47
2023/04/14 03:01:06;;;;;;;;;;;;;;;18.28;56.98;97270.44;2079600;28;19932;-48
2023/04/14 03:02:09;;;;;;;;;;;;;;;18.29;56.70;97274.75;2067291;28;20042;-48
2023/04/14 03:03:10;;;;;;;;;;;;;;;18.27;56.81;97274.16;2084803;28;20409;-51
2023/04/14 03:04:13;;;;;;;;;;;;;;;18.26;56.89;97275.22;2076799;28;19928;-46
2023/04/14 03:05:15;;;;;;;;;;;;;;;18.27;57.04;97282.22;2077856;28;19932;-46
2023/04/14 03:06:16;;;;;;;;;;;;;;;18.27;57.01;97287.56;2076399;28;19929;-51
2023/04/14 03:07:18;;;;;;;;;;;;;;;18.27;56.41;97293.75;2078749;28;20978;-47
2023/04/14 03:08:20;;;;;;;;;;;;;;;18.25;57.04;97295.88;2075825;28;20143;-46
2023/04/14 03:09:21;;;;;;;;;;;;;;;18.25;57.12;97293.19;2078013;28;19932;-45
2023/04/14 03:10:23;;;;;;;;;;;;;;;18.27;56.86;97293.75;2081060;28;19932;-49
2023/04/14 03:11:24;;;;;;;;;;;;;;;18.26;56.84;97299.38;2084121;28;19985;-47
2023/04/14 03:12:25;;;;;;;;;;;;;;;18.27;56.80;97299.13;2080259;28;19939;-47
2023/04/14 03:13:27;;;;;;;;;;;;;;;18.28;56.51;97300.78;2077501;28;19986;-46
2023/04/14 03:14:29;;;;;;;;;;;;;;;18.30;56.66;97304.06;2081629;28;20345;-47
2023/04/14 03:15:31;;;;;;;;;;;;;;;18.30;56.82;97293.31;2081169;28;19933;-48
2023/04/14 03:16:33;;;;;;;;;;;;;;;18.31;56.63;97292.25;2079127;28;19925;-46
2023/04/14 03:17:35;;;;;;;;;;;;;;;18.32;56.44;97287.69;2080561;28;19940;-47
2023/04/14 03:18:36;;;;;;;;;;;;;;;18.34;56.57;97290.97;2078675;28;19944;-49
2023/04/14 03:19:39;;;;;;;;;;;;;;;18.35;56.75;97291.78;2080512;28;19925;-49
2023/04/14 03:20:44;;;;;;;;;;;;;;;18.35;56.40;97289.91;2083185;28;19925;-46
2023/04/14 03:21:45;;;;;;;;;;;;;;;18.34;56.63;97293.66;2076944;28;19929;-48
2023/04/14 03:22:48;;;;;;;;;;;;;;;18.35;56.18;97295.28;2081689;28;19928;-48
2023/04/14 03:23:50;;;;;;;;;;;;;;;18.34;56.50;97299.03;2083287;28;19985;-49
2023/04/14 03:24:55;;;;;;;;;;;;;;;18.35;56.12;97300.66;2082963;28;20944;-47
2023/04/14 03:25:57;;;;;;;;;;;;;;;18.34;56.17;97296.34;2083472;28;19932;-47
2023/04/14 03:27:00;;;;;;;;;;;;;;;18.35;56.44;97297.97;2085650;28;19935;-46
2023/04/14 03:28:02;;;;;;;;;;;;;;;18.36;56.49;97301.47;2082284;28;19928;-48
2023/04/14 03:29:05;;;;;;;;;;;;;;;18.37;56.30;97305.78;2081556;28;20006;-47
2023/04/14 03:30:08;;;;;;;;;;;;;;;18.36;56.15;97304.97;2083002;28;19963;-47
2023/04/14 03:31:11;;;;;;;;;;;;;;;18.37;56.31;97305.78;2081936;28;19985;-52
2023/04/14 03:32:12;;;;;;;;;;;;;;;18.38;55.98;97304.72;2085904;28;20677;-46
2023/04/14 03:33:18;;;;;;;;;;;;;;;18.40;56.19;97300.75;2081889;28;19963;-47
2023/04/14 03:34:19;;;;;;;;;;;;;;;18.42;56.07;97303.22;2081700;28;19936;-45
2023/04/14 03:35:21;;;;;;;;;;;;;;;18.45;55.88;97308.94;2082128;28;20019;-46
2023/04/14 03:36:25;;;;;;;;;;;;;;;18.49;55.91;97307.41;2084411;28;19932;-48
2023/04/14 03:37:26;;;;;;;;;;;;;;;18.57;55.78;97300.06;2080761;28;19935;-47
2023/04/14 03:38:28;;;;;;;;;;;;;;;18.60;55.63;97303.06;2087859;28;19993;-49
2023/04/14 03:39:31;;;;;;;;;;;;;;;18.65;55.41;97305.88;2086316;28;20028;-47
2023/04/14 03:40:37;;;;;;;;;;;;;;;18.72;55.09;97303.06;2084125;28;19941;-47
2023/04/14 03:41:38;;;;;;;;;;;;;;;18.76;55.29;97306.94;2087298;28;20024;-48
2023/04/14 03:42:43;;;;;;;;;;;;;;;18.83;55.25;97301.44;2084149;28;19924;-47
2023/04/14 03:43:44;;;;;;;;;;;;;;;18.89;54.95;97305.88;2081968;28;19933;-45
2023/04/14 03:44:50;;;;;;;;;;;;;;;18.92;54.82;97300.84;2081889;28;20506;-47
2023/04/14 03:45:50;;;;;;;;;;;;;;;18.98;54.46;97299.88;2080760;28;20165;-50
2023/04/14 03:46:53;;;;;;;;;;;;;;;19.07;54.21;97296.81;2083235;28;19924;-46
2023/04/14 03:47:58;;;;;;;;;;;;;;;19.12;54.41;97303.09;2081018;28;20803;-46
2023/04/14 03:49:01;;;;;;;;;;;;;;;19.18;54.39;97301.34;2083235;28;20006;-48
2023/04/14 03:50:03;;;;;;;;;;;;;;;19.24;53.96;97302.25;2083926;28;19925;-46
2023/04/14 03:51:07;;;;;;;;;;;;;;;19.27;54.19;97301.75;2082345;28;19925;-45
2023/04/14 03:52:10;;;;;;;;;;;;;;;19.32;54.16;97305.38;2088393;28;20276;-46
2023/04/14 03:53:13;;;;;;;;;;;;;;;19.36;53.82;97301.16;2080972;28;20011;-48
2023/04/14 03:54:14;;;;;;;;;;;;;;;19.41;53.80;97298.53;2081172;28;19971;-46
2023/04/14 03:55:17;;;;;;;;;;;;;;;19.45;53.55;97298.88;2081679;28;20055;-45
2023/04/14 03:56:18;;;;;;;;;;;;;;;19.47;53.78;97295.94;2076084;28;19932;-46
2023/04/14 03:57:22;;;;;;;;;;;;;;;19.49;53.59;97297.34;2080661;28;20023;-46
2023/04/14 03:58:24;;;;;;;;;;;;;;;19.47;54.03;97293.25;2073577;28;19962;-45
2023/04/14 03:59:26;;;;;;;;;;;;;;;19.49;53.73;97296.53;2078531;28;19925;-49
2023/04/14 04:00:28;;;;;;;;;;;;;;;19.49;53.67;97296.53;2080389;28;20363;-47
2023/04/14 04:01:31;;;;;;;;;;;;;;;19.53;53.76;97295.81;2079477;28;20371;-48
2023/04/14 04:02:31;;;;;;;;;;;;;;;19.52;53.85;97290.66;2082929;28;21785;-46
2023/04/14 04:03:34;;;;;;;;;;;;;;;19.55;53.85;97295.53;2078404;27;19928;-46
2023/04/14 04:04:35;;;;;;;;;;;;;;;19.57;53.82;97290.75;2077778;28;19999;-48
2023/04/14 04:05:39;;;;;;;;;;;;;;;19.58;53.55;97292.38;2081004;28;19932;-47
2023/04/14 04:06:40;;;;;;;;;;;;;;;19.61;53.43;97291.88;2079889;28;21423;-47
2023/04/14 04:07:44;;;;;;;;;;;;;;;19.61;53.80;97292.72;2081687;28;19937;-49
2023/04/14 04:08:46;;;;;;;;;;;;;;;19.61;53.41;97303.47;2081731;28;19932;-47
2023/04/14 04:09:49;;;;;;;;;;;;;;;19.62;53.62;97301.59;2075055;28;19932;-45
2023/04/14 04:10:51;;;;;;;;;;;;;;;19.63;53.53;97305.91;2081492;28;19932;-47
2023/04/14 04:11:53;;;;;;;;;;;;;;;19.64;53.36;97302.19;2078639;28;19933;-45
2023/04/14 04:12:56;;;;;;;;;;;;;;;19.65;53.78;97303.81;2086371;28;19996;-48
2023/04/14 04:13:58;;;;;;;;;;;;;;;19.67;53.68;97311.66;2080858;28;20006;-48
2023/04/14 04:14:59;;;;;;;;;;;;;;;19.69;53.34;97307.66;2080143;28;19985;-45
2023/04/14 04:16:02;;;;;;;;;;;;;;;19.72;53.40;97309.06;2083881;28;19929;-47
2023/04/14 04:17:04;;;;;;;;;;;;;;;19.71;53.38;97313.63;2082492;28;20206;-47
2023/04/14 04:18:07;;;;;;;;;;;;;;;19.73;53.54;97319.59;2081602;28;19940;-47
2023/04/14 04:19:09;;;;;;;;;;;;;;;19.73;53.54;97322.28;2081916;28;19929;-45
2023/04/14 04:20:14;;;;;;;;;;;;;;;19.73;53.41;97327.66;2081527;28;19935;-47
2023/04/14 04:21:16;;;;;;;;;;;;;;;19.74;53.52;97331.97;2080738;28;19954;-47
2023/04/14 04:22:20;;;;;;;;;;;;;;;19.77;53.29;97341.44;2081448;28;20024;-45
2023/04/14 04:23:23;;;;;;;;;;;;;;;19.75;53.27;97344.38;2080031;28;19935;-46
2023/04/14 04:24:26;;;;;;;;;;;;;;;19.78;53.11;97343.88;2081164;28;20371;-46
2023/04/14 04:25:27;;;;;;;;;;;;;;;19.77;53.49;97349.50;2081718;28;19932;-45
2023/04/14 04:26:29;;;;;;;;;;;;;;;19.78;53.38;97349.28;2080675;28;20610;-46
2023/04/14 04:27:29;;;;;;;;;;;;;;;19.79;53.37;97344.69;2082509;28;21628;-45
2023/04/14 04:28:31;;;;;;;;;;;;;;;19.78;53.49;97343.88;2085124;28;19932;-46
2023/04/14 04:29:32;;;;;;;;;;;;;;;19.79;53.45;97347.38;2082985;27;19940;-46
2023/04/14 04:30:34;;;;;;;;;;;;;;;19.79;53.45;97350.09;2074198;28;19940;-46
2023/04/14 04:31:35;;;;;;;;;;;;;;;19.80;53.31;97349.00;2078733;28;19936;-45
2023/04/14 04:32:37;;;;;;;;;;;;;;;19.80;53.27;97351.69;2079478;28;19933;-45
2023/04/14 04:33:37;;;;;;;;;;;;;;;19.83;53.29;97356.59;2079772;28;22287;-48
2023/04/14 04:34:39;;;;;;;;;;;;;;;19.81;53.13;97356.03;2081711;28;19935;-45
2023/04/14 04:35:41;;;;;;;;;;;;;;;19.84;53.34;97361.75;2078997;28;19933;-48
2023/04/14 04:36:43;;;;;;;;;;;;;;;19.84;53.21;97359.06;2079847;28;19998;-51
2023/04/14 04:37:44;;;;;;;;;;;;;;;19.85;53.34;97358.00;2070278;28;20047;-46
2023/04/14 04:38:48;;;;;;;;;;;;;;;19.85;53.26;97351.78;2076067;28;21880;-49
2023/04/14 04:39:49;;;;;;;;;;;;;;;19.85;53.14;97352.59;2080123;28;19958;-49
2023/04/14 04:40:50;;;;;;;;;;;;;;;19.85;53.08;97358.00;2079266;28;20059;-46
2023/04/14 04:42:01;;;;;;;;;;;;;;;19.83;53.50;97345.84;2078555;28;20577;-53
2023/04/14 04:43:02;;;;;;;;;;;;;;;19.85;53.32;97339.16;2077534;27;19932;-48
2023/04/14 04:44:02;;;;;;;;;;;;;;;19.85;53.47;97336.47;2081502;28;19928;-49
2023/04/14 04:45:04;;;;;;;;;;;;;;;19.86;53.42;97334.59;2077319;28;19929;-53
2023/04/14 04:46:11;;;;;;;;;;;;;;;19.86;53.26;97332.72;2078714;28;20006;-49
2023/04/14 04:47:13;;;;;;;;;;;;;;;19.85;53.24;97331.06;2079529;28;19949;-52
2023/04/14 04:48:13;;;;;;;;;;;;;;;19.82;53.45;97320.81;2076668;28;19932;-48
2023/04/14 04:49:15;;;;;;;;;;;;;;;19.85;53.52;97325.69;2078273;28;20556;-48
2023/04/14 04:50:15;;;;;;;;;;;;;;;19.86;53.25;97327.34;2078141;28;19985;-47
2023/04/14 04:51:17;;;;;;;;;;;;;;;19.85;53.18;97332.97;2078306;28;19997;-46
2023/04/14 04:52:19;;;;;;;;;;;;;;;19.84;53.12;97336.72;2078867;28;19928;-53
2023/04/14 04:53:19;;;;;;;;;;;;;;;19.81;53.59;97340.72;2077500;28;20013;-51
2023/04/14 04:54:22;;;;;;;;;;;;;;;19.83;53.28;97341.25;2072459;28;20074;-49
2023/04/14 04:55:23;;;;;;;;;;;;;;;19.84;53.55;97342.91;2079422;28;20029;-51
2023/04/14 04:56:25;;;;;;;;;;;;;;;19.85;53.15;97349.09;2077797;28;19982;-50
2023/04/14 04:57:25;;;;;;;;;;;;;;;19.84;53.29;97355.56;2077032;28;20059;-49
2023/04/14 04:58:26;;;;;;;;;;;;;;;19.84;53.15;97355.56;2077583;28;19924;-49
2023/04/14 04:59:27;;;;;;;;;;;;;;;19.87;53.41;97360.44;2080216;28;19932;-49
2023/04/14 05:00:28;;;;;;;;;;;;;;;19.86;53.09;97359.63;2079654;28;19975;-49
2023/04/14 05:01:29;;;;;;;;;;;;;;;19.85;53.24;97363.38;2075736;28;19932;-52
2023/04/14 05:02:31;;;;;;;;;;;;;;;19.86;53.26;97367.72;2077414;28;19935;-53
2023/04/14 05:03:31;;;;;;;;;;;;;;;19.84;53.49;97367.13;2078175;28;19928;-52
2023/04/14 05:04:33;;;;;;;;;;;;;;;19.80;53.33;97368.66;2069039;28;19929;-50
2023/04/14 05:05:34;;;;;;;;;;;;;;;19.82;53.56;97366.53;2078505;28;19929;-47
2023/04/14 05:06:37;;;;;;;;;;;;;;;19.82;53.37;97374.63;2078320;28;19932;-48
2023/04/14 05:07:37;;;;;;;;;;;;;;;19.83;53.20;97373.53;2077215;28;19925;-50
2023/04/14 05:08:38;;;;;;;;;;;;;;;19.82;53.22;97384.56;2080016;28;19938;-52
2023/04/14 05:09:40;;;;;;;;;;;;;;;19.82;53.52;97388.06;2078800;28;19928;-49
2023/04/14 05:10:42;;;;;;;;;;;;;;;19.82;53.31;97385.38;2078889;28;19924;-52
2023/04/14 05:11:43;;;;;;;;;;;;;;;19.85;53.17;97390.28;2078295;28;19929;-52
2023/04/14 05:12:44;;;;;;;;;;;;;;;19.86;53.49;97391.94;2078764;28;19935;-49
2023/04/14 05:13:45;;;;;;;;;;;;;;;19.86;53.27;97396.47;2080150;28;19981;-51
2023/04/14 05:14:47;;;;;;;;;;;;;;;19.86;53.47;97394.63;2080870;28;19928;-48
2023/04/14 05:15:47;;;;;;;;;;;;;;;19.86;53.44;97397.31;2081337;28;19933;-51
2023/04/14 05:16:49;;;;;;;;;;;;;;;19.85;53.38;97395.66;2078397;28;20372;-50
2023/04/14 05:17:49;;;;;;;;;;;;;;;19.85;53.46;97395.66;2080265;28;19928;-51
2023/04/14 05:18:51;;;;;;;;;;;;;;;19.84;53.41;97399.41;2077037;28;20914;-50
2023/04/14 05:19:51;;;;;;;;;;;;;;;19.85;53.51;97401.03;2076524;28;20539;-48
2023/04/14 05:20:53;;;;;;;;;;;;;;;19.82;53.54;97401.53;2072679;28;19928;-49
2023/04/14 05:21:54;;;;;;;;;;;;;;;19.82;53.59;97396.13;2081029;28;19929;-50
2023/04/14 05:22:55;;;;;;;;;;;;;;;19.82;53.39;97398.84;2079443;28;19925;-50
2023/04/14 05:23:56;;;;;;;;;;;;;;;19.84;53.16;97399.41;2081404;28;20051;-51
2023/04/14 05:24:59;;;;;;;;;;;;;;;19.82;53.20;97398.03;2079913;28;19933;-48